createdAt,value
2017-07-31T03:31:13.810Z,1.97
2017-07-31T03:33:41.485Z,2.00
2017-07-31T03:36:09.127Z,2.77
2017-07-31T03:38:37.166Z,2.13
2017-07-31T03:41:04.791Z,2.47
2017-07-31T03:43:32.434Z,2.43
2017-07-31T03:46:00.461Z,2.60
2017-07-31T03:48:28.108Z,2.60
2017-07-31T03:50:56.507Z,2.00
2017-07-31T03:53:24.165Z,2.23
2017-07-31T03:55:51.826Z,2.30
2017-07-31T03:58:20.273Z,2.93
2017-07-31T04:00:47.981Z,2.70
2017-07-31T04:03:15.782Z,3.00
2017-07-31T04:05:43.420Z,2.67
2017-07-31T04:08:11.087Z,2.77
2017-07-31T04:10:38.819Z,2.63
2017-07-31T04:13:06.785Z,2.63
2017-07-31T04:15:34.421Z,2.23
2017-07-31T04:18:02.060Z,2.20
2017-07-31T04:20:29.810Z,2.23
2017-07-31T04:22:57.453Z,2.80
2017-07-31T04:25:25.115Z,2.90
2017-07-31T04:27:52.784Z,2.43
2017-07-31T04:30:20.740Z,2.60
2017-07-31T04:32:48.382Z,2.30
2017-07-31T04:35:16.014Z,2.20
2017-07-31T04:37:43.697Z,3.00
2017-07-31T04:40:12.117Z,2.57
2017-07-31T04:42:39.787Z,2.83
2017-07-31T04:45:07.428Z,2.17
2017-07-31T04:47:35.108Z,3.53
2017-07-31T04:50:02.764Z,2.77
2017-07-31T04:52:30.696Z,2.87
2017-07-31T04:54:58.345Z,2.30
2017-07-31T04:57:26.002Z,2.77
2017-07-31T04:59:53.908Z,2.60
2017-07-31T05:02:21.571Z,2.63
2017-07-31T05:04:49.233Z,2.47
2017-07-31T05:07:16.878Z,2.30
2017-07-31T05:09:45.299Z,2.53
2017-07-31T05:12:12.934Z,2.87
2017-07-31T05:14:40.556Z,3.60
2017-07-31T05:17:08.199Z,3.00
2017-07-31T05:19:35.844Z,3.10
2017-07-31T05:22:03.553Z,2.90
2017-07-31T05:24:31.202Z,2.70
2017-07-31T05:26:58.850Z,2.57
2017-07-31T05:29:26.566Z,2.73
2017-07-31T05:31:54.524Z,2.13
2017-07-31T05:34:22.931Z,2.93
2017-07-31T05:36:50.578Z,2.83
2017-07-31T05:39:18.244Z,2.20
2017-07-31T05:41:45.897Z,2.57
2017-07-31T05:44:13.564Z,2.33
2017-07-31T05:46:41.214Z,2.13
2017-07-31T05:49:09.634Z,2.47
2017-07-31T05:51:37.271Z,2.50
2017-07-31T05:54:05.043Z,2.30
2017-07-31T05:56:32.665Z,2.30
2017-07-31T05:59:01.075Z,2.30
2017-07-31T06:01:28.757Z,2.30
2017-07-31T06:03:56.419Z,2.30
2017-07-31T06:06:24.102Z,2.10
2017-07-31T06:08:53.471Z,2.13
2017-07-31T06:11:21.129Z,2.80
2017-07-31T06:13:48.760Z,2.53
2017-07-31T06:16:17.201Z,2.60
2017-07-31T06:18:44.852Z,2.47
2017-07-31T06:21:12.635Z,2.83
2017-07-31T06:23:40.298Z,2.87
2017-07-31T06:26:07.938Z,2.17
2017-07-31T06:28:35.602Z,2.30
2017-07-31T06:31:03.249Z,2.40
2017-07-31T06:33:30.909Z,2.40
2017-07-31T06:35:58.550Z,2.10
2017-07-31T06:38:27.077Z,2.30
2017-07-31T06:40:54.735Z,2.10
2017-07-31T06:43:22.367Z,1.97
2017-07-31T06:45:50.135Z,2.70
2017-07-31T06:48:17.766Z,2.10
2017-07-31T06:50:46.216Z,2.80
2017-07-31T06:53:14.237Z,2.20
2017-07-31T06:55:41.889Z,2.20
2017-07-31T06:58:10.370Z,1.97
2017-07-31T07:00:39.229Z,2.40
2017-07-31T07:03:06.885Z,2.60
2017-07-31T07:05:34.537Z,2.87
2017-07-31T07:08:02.579Z,2.50
2017-07-31T07:10:30.218Z,2.20
2017-07-31T07:12:57.885Z,1.90
2017-07-31T07:15:25.673Z,1.83
2017-07-31T07:17:53.313Z,2.10
2017-07-31T07:20:20.954Z,2.00
2017-07-31T07:23:03.491Z,2.30
2017-07-31T07:25:31.130Z,2.37
2017-07-31T07:27:59.651Z,2.53
2017-07-31T07:30:27.272Z,2.10
2017-07-31T07:32:54.932Z,2.07
2017-07-31T07:35:23.336Z,2.63
2017-07-31T07:37:51.280Z,2.40
2017-07-31T07:40:18.932Z,1.90
2017-07-31T07:42:46.592Z,2.20
2017-07-31T07:45:14.244Z,2.40
2017-07-31T07:47:42.150Z,2.17
2017-07-31T07:50:09.804Z,2.10
2017-07-31T07:52:38.260Z,2.00
2017-07-31T07:55:05.946Z,2.20
2017-07-31T07:57:33.682Z,2.67
2017-07-31T08:00:01.325Z,2.00
2017-07-31T08:02:29.930Z,2.40
2017-07-31T08:04:57.587Z,2.23
2017-07-31T08:07:25.274Z,2.10
2017-07-31T08:09:53.819Z,2.60
2017-07-31T08:12:21.487Z,2.07
2017-07-31T08:14:49.149Z,2.07
2017-07-31T08:17:16.913Z,2.87
2017-07-31T08:19:44.616Z,2.13
2017-07-31T08:22:12.278Z,1.93
2017-07-31T08:24:39.951Z,2.20
2017-07-31T08:27:07.617Z,3.40
2017-07-31T08:29:35.284Z,2.07
2017-07-31T08:32:02.954Z,3.40
2017-07-31T08:34:30.683Z,1.77
2017-07-31T08:36:58.343Z,1.93
2017-07-31T08:39:27.033Z,2.83
2017-07-31T08:41:54.683Z,2.60
2017-07-31T08:44:23.101Z,2.10
2017-07-31T08:46:50.728Z,1.83
2017-07-31T08:49:19.151Z,2.33
2017-07-31T08:51:46.817Z,1.90
2017-07-31T08:54:14.469Z,2.00
2017-07-31T08:56:42.247Z,2.67
2017-07-31T08:59:09.990Z,2.10
2017-07-31T09:01:37.650Z,2.17
2017-07-31T09:04:05.536Z,2.00
2017-07-31T09:06:33.192Z,2.80
2017-07-31T09:09:00.839Z,2.20
2017-07-31T09:11:28.523Z,2.13
2017-07-31T09:13:56.176Z,3.00
2017-07-31T09:16:23.812Z,2.43
2017-07-31T09:18:51.463Z,2.40
2017-07-31T09:21:19.891Z,3.70
2017-07-31T09:23:47.540Z,2.10
2017-07-31T09:26:15.208Z,2.20
2017-07-31T09:28:42.853Z,2.30
2017-07-31T09:31:10.801Z,1.93
2017-07-31T09:33:39.222Z,2.23
2017-07-31T09:36:06.878Z,1.93
2017-07-31T09:38:34.569Z,2.43
2017-07-31T09:41:02.219Z,2.40
2017-07-31T09:43:29.903Z,2.73
2017-07-31T09:45:57.812Z,2.00
2017-07-31T09:48:25.476Z,2.00
2017-07-31T09:50:53.133Z,2.07
2017-07-31T09:53:20.848Z,1.90
2017-07-31T09:55:48.501Z,1.90
2017-07-31T09:58:16.436Z,2.27
2017-07-31T10:00:44.104Z,1.90
2017-07-31T10:03:11.823Z,2.40
2017-07-31T10:05:40.323Z,2.17
2017-07-31T10:08:07.981Z,2.40
2017-07-31T10:10:35.742Z,2.03
2017-07-31T10:13:04.174Z,2.10
2017-07-31T10:15:31.930Z,3.83
2017-07-31T10:17:59.590Z,2.77
2017-07-31T10:20:27.242Z,2.20
2017-07-31T10:22:54.917Z,2.17
2017-07-31T10:25:22.576Z,2.20
2017-07-31T10:27:50.248Z,2.20
2017-07-31T10:30:17.895Z,2.50
2017-07-31T10:32:45.640Z,4.43
2017-07-31T10:35:13.315Z,2.30
2017-07-31T10:37:41.250Z,2.43
2017-07-31T10:40:09.681Z,2.43
2017-07-31T10:42:37.341Z,2.50
2017-07-31T10:45:05.009Z,3.27
2017-07-31T10:47:32.677Z,2.70
2017-07-31T10:50:00.360Z,2.90
2017-07-31T10:52:28.026Z,2.63
2017-07-31T10:54:55.697Z,2.27
2017-07-31T10:57:24.101Z,2.30
2017-07-31T10:59:51.787Z,2.60
2017-07-31T11:02:19.456Z,2.40
2017-07-31T11:04:47.093Z,2.93
2017-07-31T11:07:14.776Z,2.50
2017-07-31T11:09:42.416Z,2.87
2017-07-31T11:12:10.084Z,2.93
2017-07-31T11:14:37.982Z,2.50
2017-07-31T11:17:05.987Z,3.43
2017-07-31T11:19:33.666Z,3.10
2017-07-31T11:22:01.305Z,3.33
2017-07-31T11:24:28.980Z,3.23
2017-07-31T11:26:57.390Z,3.17
2017-07-31T11:29:25.065Z,4.00
2017-07-31T11:31:52.692Z,2.50
2017-07-31T11:34:20.363Z,3.17
2017-07-31T11:36:48.008Z,3.20
2017-07-31T11:39:16.883Z,3.30
2017-07-31T11:41:45.366Z,3.27
2017-07-31T11:44:13.024Z,2.43
2017-07-31T11:46:40.726Z,2.60
2017-07-31T11:49:08.392Z,2.40
2017-07-31T11:51:36.041Z,2.20
2017-07-31T11:54:03.685Z,2.87
2017-07-31T11:56:31.427Z,2.73
2017-07-31T11:58:59.072Z,3.10
2017-07-31T12:01:26.740Z,2.40
2017-07-31T12:03:54.388Z,3.60
2017-07-31T12:06:25.627Z,2.77
2017-07-31T12:08:54.021Z,2.77
2017-07-31T12:11:21.658Z,2.90
2017-07-31T12:13:49.597Z,2.87
2017-07-31T12:16:17.253Z,3.17
2017-07-31T12:18:45.678Z,2.93
2017-07-31T12:21:13.597Z,2.40
2017-07-31T12:23:42.031Z,3.10
2017-07-31T12:26:09.677Z,2.77
2017-07-31T12:28:37.419Z,3.33
2017-07-31T12:31:05.085Z,2.93
2017-07-31T12:33:32.750Z,2.90
2017-07-31T12:36:00.712Z,3.10
2017-07-31T12:38:28.382Z,2.83
2017-07-31T12:40:56.051Z,3.77
2017-07-31T12:43:23.999Z,2.80
2017-07-31T12:45:51.647Z,3.53
2017-07-31T12:48:19.280Z,2.97
2017-07-31T12:50:47.491Z,3.97
2017-07-31T12:53:15.149Z,3.10
2017-07-31T12:55:43.578Z,3.03
2017-07-31T12:58:11.728Z,3.00
2017-07-31T13:00:39.433Z,3.10
2017-07-31T13:03:07.079Z,3.67
2017-07-31T13:05:35.096Z,2.67
2017-07-31T13:08:02.765Z,3.13
2017-07-31T13:10:30.439Z,3.47
2017-07-31T13:12:58.405Z,3.30
2017-07-31T13:15:26.050Z,2.70
2017-07-31T13:17:54.530Z,2.93
2017-07-31T13:20:22.507Z,2.90
2017-07-31T13:22:50.164Z,3.93
2017-07-31T13:25:18.811Z,3.30
2017-07-31T13:27:46.497Z,3.43
2017-07-31T13:30:14.378Z,2.80
2017-07-31T13:32:42.804Z,2.37
2017-07-31T13:35:10.458Z,2.97
2017-07-31T13:37:38.432Z,3.40
2017-07-31T13:40:06.093Z,3.27
2017-07-31T13:42:33.884Z,3.50
2017-07-31T13:45:01.894Z,3.07
2017-07-31T13:47:29.655Z,3.00
2017-07-31T13:49:57.563Z,3.30
2017-07-31T13:52:25.598Z,3.17
2017-07-31T13:54:53.296Z,3.03
2017-07-31T13:57:21.046Z,3.60
2017-07-31T13:59:49.116Z,3.07
2017-07-31T14:02:16.766Z,3.47
2017-07-31T14:04:44.431Z,2.83
2017-07-31T14:07:12.381Z,2.93
2017-07-31T14:09:40.796Z,3.50
2017-07-31T14:12:08.451Z,3.87
2017-07-31T14:14:36.386Z,3.30
2017-07-31T14:17:04.842Z,2.97
2017-07-31T14:19:32.485Z,3.67
2017-07-31T14:22:00.527Z,3.23
2017-07-31T14:24:28.177Z,3.77
2017-07-31T14:26:55.870Z,3.10
2017-07-31T14:29:24.011Z,3.17
2017-07-31T14:31:51.680Z,3.97
2017-07-31T14:34:19.342Z,3.50
2017-07-31T14:36:46.998Z,2.93
2017-07-31T14:39:14.652Z,3.20
2017-07-31T14:41:43.080Z,3.50
2017-07-31T14:44:10.750Z,2.83
2017-07-31T14:46:38.597Z,3.40
2017-07-31T14:49:06.227Z,3.50
2017-07-31T14:51:33.895Z,3.20
2017-07-31T14:54:01.682Z,3.17
2017-07-31T14:56:29.341Z,3.00
2017-07-31T14:58:57.023Z,3.40
2017-07-31T15:01:24.663Z,3.67
2017-07-31T15:03:52.338Z,3.10
2017-07-31T15:06:19.996Z,2.73
2017-07-31T15:08:47.771Z,4.63
2017-07-31T15:11:15.461Z,3.67
2017-07-31T15:13:43.142Z,3.53
2017-07-31T15:16:10.816Z,3.00
2017-07-31T15:18:38.448Z,2.80
2017-07-31T15:21:06.140Z,2.83
2017-07-31T15:23:33.787Z,2.93
2017-07-31T15:26:01.460Z,3.37
2017-07-31T15:28:29.996Z,3.30
2017-07-31T15:30:57.664Z,2.97
2017-07-31T15:33:25.342Z,3.40
2017-07-31T15:35:53.017Z,3.87
2017-07-31T15:38:21.481Z,3.50
2017-07-31T15:40:49.134Z,3.00
2017-07-31T15:43:16.804Z,3.40
2017-07-31T15:45:44.667Z,3.03
2017-07-31T15:48:12.778Z,3.57
2017-07-31T15:50:40.428Z,3.30
2017-07-31T15:53:08.857Z,3.50
2017-07-31T15:55:36.512Z,3.10
2017-07-31T15:58:04.165Z,3.40
2017-07-31T16:00:31.976Z,3.80
2017-07-31T16:02:59.638Z,3.40
2017-07-31T16:05:27.308Z,3.80
2017-07-31T16:07:55.792Z,2.70
2017-07-31T16:10:24.333Z,3.53
2017-07-31T16:12:52.005Z,2.70
2017-07-31T16:15:19.710Z,2.90
2017-07-31T16:17:47.393Z,4.53
2017-07-31T16:20:15.043Z,5.77
2017-07-31T16:22:42.698Z,8.03
2017-07-31T16:25:11.162Z,7.50
2017-07-31T16:27:38.827Z,6.30
2017-07-31T16:30:07.247Z,6.90
2017-07-31T16:32:34.923Z,8.70
2017-07-31T16:35:02.584Z,8.93
2017-07-31T16:37:36.555Z,6.63
2017-07-31T16:40:16.604Z,6.20
2017-07-31T16:42:56.421Z,7.20
2017-07-31T16:45:35.717Z,8.00
2017-07-31T16:48:13.373Z,7.60
2017-07-31T16:50:41.772Z,6.03
2017-07-31T16:53:09.548Z,6.77
2017-07-31T16:55:37.171Z,5.43
2017-07-31T16:58:04.892Z,4.83
2017-07-31T17:00:32.941Z,3.43
2017-07-31T17:03:00.581Z,4.20
2017-07-31T17:05:28.239Z,3.77
2017-07-31T17:07:56.007Z,3.37
2017-07-31T17:10:24.414Z,3.50
2017-07-31T17:12:52.061Z,3.40
2017-07-31T17:15:20.151Z,3.57
2017-07-31T17:17:47.810Z,3.50
2017-07-31T17:20:15.467Z,3.43
2017-07-31T17:22:43.237Z,3.70
2017-07-31T17:25:10.905Z,3.60
2017-07-31T17:27:38.564Z,3.80
2017-07-31T17:30:06.336Z,3.80
2017-07-31T17:32:33.977Z,3.97
2017-07-31T17:35:01.644Z,3.97
2017-07-31T17:37:29.690Z,3.90
2017-07-31T17:39:58.097Z,4.03
2017-07-31T17:42:25.753Z,3.17
2017-07-31T17:44:53.711Z,3.60
2017-07-31T17:47:21.368Z,3.73
2017-07-31T17:49:49.825Z,3.70
2017-07-31T17:52:17.623Z,3.40
2017-07-31T17:54:45.285Z,5.37
2017-07-31T17:57:12.952Z,3.63
2017-07-31T17:59:40.714Z,4.20
2017-07-31T18:02:08.359Z,4.30
2017-07-31T18:04:35.999Z,3.80
2017-07-31T18:07:03.998Z,3.73
2017-07-31T18:09:31.658Z,3.83
2017-07-31T18:12:00.094Z,4.50
2017-07-31T18:14:28.011Z,3.97
2017-07-31T18:16:56.417Z,4.10
2017-07-31T18:19:24.088Z,4.87
2017-07-31T18:21:52.141Z,4.20
2017-07-31T18:24:19.845Z,4.37
2017-07-31T18:26:47.488Z,4.20
2017-07-31T18:29:15.361Z,5.23
2017-07-31T18:31:43.006Z,4.13
2017-07-31T18:34:10.680Z,5.13
2017-07-31T18:36:38.707Z,3.47
2017-07-31T18:39:06.402Z,4.23
2017-07-31T18:41:34.060Z,3.57
2017-07-31T18:44:02.105Z,3.37
2017-07-31T18:46:29.823Z,3.70
2017-07-31T18:48:57.480Z,3.33
2017-07-31T18:51:26.547Z,4.33
2017-07-31T18:53:54.222Z,3.90
2017-07-31T18:56:21.894Z,3.60
2017-07-31T18:58:49.670Z,4.10
2017-07-31T19:01:17.362Z,3.70
2017-07-31T19:03:45.775Z,4.70
2017-07-31T19:06:13.823Z,3.90
2017-07-31T19:08:42.287Z,3.93
2017-07-31T19:11:10.742Z,4.33
2017-07-31T19:13:38.743Z,4.37
2017-07-31T19:16:07.253Z,3.80
2017-07-31T19:18:34.977Z,3.80
2017-07-31T19:21:02.968Z,3.73
2017-07-31T19:23:31.393Z,3.87
2017-07-31T19:25:59.046Z,3.77
2017-07-31T19:28:27.392Z,4.67
2017-07-31T19:30:55.119Z,4.00
2017-07-31T19:33:22.814Z,4.57
2017-07-31T19:35:50.651Z,4.00
2017-07-31T19:38:18.489Z,3.50
2017-07-31T19:40:46.895Z,3.93
2017-07-31T19:43:14.840Z,3.73
2017-07-31T19:45:42.481Z,3.63
2017-07-31T19:48:10.259Z,3.70
2017-07-31T19:50:38.228Z,3.47
2017-07-31T20:06:06.263Z,3.43
2017-07-31T20:08:33.920Z,4.27
2017-07-31T20:11:01.606Z,3.53
2017-07-31T20:13:29.582Z,3.60
2017-07-31T20:15:57.237Z,2.97
2017-07-31T20:18:24.899Z,3.23
2017-07-31T20:20:52.950Z,3.20
2017-07-31T20:23:20.707Z,2.70
2017-07-31T20:25:48.387Z,3.70
2017-07-31T20:28:16.048Z,3.90
2017-07-31T20:30:43.677Z,3.30
2017-07-31T20:33:12.120Z,3.50
2017-07-31T20:35:39.863Z,3.87
2017-07-31T20:38:07.892Z,3.60
2017-07-31T20:40:35.600Z,4.10
2017-07-31T20:43:03.859Z,3.40
2017-07-31T20:45:31.564Z,3.03
2017-07-31T20:47:59.231Z,3.40
2017-07-31T20:50:26.903Z,3.60
2017-07-31T20:52:54.664Z,3.07
2017-07-31T20:55:22.323Z,3.50
2017-07-31T20:57:49.973Z,4.13
2017-07-31T21:00:17.633Z,3.20
2017-07-31T21:02:45.277Z,4.20
2017-07-31T21:05:12.953Z,2.93
2017-07-31T21:07:40.627Z,3.33
2017-07-31T21:10:08.321Z,3.60
2017-07-31T21:12:35.976Z,3.13
2017-07-31T21:15:03.640Z,3.17
2017-07-31T21:17:32.081Z,3.17
2017-07-31T21:19:59.830Z,3.77
2017-07-31T21:22:27.851Z,3.30
2017-07-31T21:24:55.709Z,3.10
2017-07-31T21:27:23.379Z,3.57
2017-07-31T21:29:51.830Z,3.17
2017-07-31T21:32:19.468Z,3.43
2017-07-31T21:34:47.111Z,4.00
2017-07-31T21:37:14.749Z,3.57
2017-07-31T21:39:43.195Z,2.87
2017-07-31T21:42:10.860Z,3.20
2017-07-31T21:44:38.860Z,3.40
2017-07-31T21:47:07.241Z,3.17
2017-07-31T21:49:35.637Z,2.90
2017-07-31T21:52:03.334Z,3.33
2017-07-31T21:54:30.990Z,3.30
2017-07-31T21:56:58.676Z,3.10
2017-07-31T21:59:26.308Z,2.83
2017-07-31T22:01:53.973Z,3.80
2017-07-31T22:04:21.630Z,4.00
2017-07-31T22:06:49.285Z,3.23
2017-07-31T22:09:16.912Z,3.13
2017-07-31T22:11:45.834Z,3.03
2017-07-31T22:14:13.488Z,3.33
2017-07-31T22:16:56.508Z,2.80
2017-07-31T22:19:24.172Z,3.10
2017-07-31T22:21:57.665Z,3.40
2017-07-31T22:24:25.293Z,3.13
2017-07-31T22:26:52.943Z,3.23
2017-07-31T22:29:20.626Z,2.50
